createdAt,value
2018-07-12T00:01:51.151Z,57.93
2018-07-12T00:04:18.528Z,54.67
2018-07-12T00:06:45.881Z,47.93
2018-07-12T00:09:13.282Z,53.97
2018-07-12T00:11:40.619Z,46.17
2018-07-12T00:14:07.987Z,42.90
2018-07-12T00:16:35.353Z,43.20
2018-07-12T00:19:02.877Z,44.07
2018-07-12T00:21:30.242Z,47.63
2018-07-12T00:23:57.613Z,47.57
2018-07-12T00:26:24.963Z,48.43
2018-07-12T00:28:52.906Z,49.20
2018-07-12T00:31:20.271Z,58.37
2018-07-12T00:33:47.695Z,62.03
2018-07-12T00:36:15.183Z,66.63
2018-07-12T00:38:42.575Z,80.93
2018-07-12T00:41:10.156Z,73.10
2018-07-12T00:43:37.535Z,73.07
2018-07-12T00:46:04.882Z,73.50
2018-07-12T00:48:32.287Z,77.77
2018-07-12T00:50:59.683Z,78.90
2018-07-12T00:53:27.071Z,79.47
2018-07-12T00:55:54.446Z,82.03
2018-07-12T00:58:21.786Z,70.30
2018-07-12T01:00:49.158Z,71.63
2018-07-12T01:03:16.500Z,70.00
2018-07-12T01:05:43.876Z,67.70
2018-07-12T01:08:11.223Z,87.07
2018-07-12T01:10:38.595Z,86.77
2018-07-12T01:13:06.764Z,76.13
2018-07-12T01:15:34.156Z,75.00
2018-07-12T01:18:01.503Z,79.67
2018-07-12T01:20:28.878Z,76.73
2018-07-12T01:22:56.261Z,75.20
2018-07-12T01:25:23.631Z,80.73
2018-07-12T01:27:50.990Z,68.60
2018-07-12T01:30:18.363Z,66.70
2018-07-12T01:32:45.720Z,75.83
2018-07-12T01:35:13.086Z,84.03
2018-07-12T01:37:40.727Z,76.53
2018-07-12T01:40:08.100Z,70.03
2018-07-12T01:42:35.451Z,70.77
2018-07-12T01:45:03.097Z,65.03
2018-07-12T01:47:30.463Z,70.37
2018-07-12T01:49:57.815Z,54.37
2018-07-12T01:52:25.179Z,63.17
2018-07-12T01:54:52.576Z,55.93
2018-07-12T01:57:20.012Z,66.80
2018-07-12T01:59:47.362Z,57.57
2018-07-12T02:02:14.801Z,58.53
2018-07-12T02:04:42.183Z,61.27
2018-07-12T02:07:09.587Z,64.30
2018-07-12T02:09:36.938Z,65.03
2018-07-12T02:12:04.303Z,61.63
2018-07-12T02:14:31.687Z,75.17
2018-07-12T02:16:59.114Z,69.00
2018-07-12T02:19:26.594Z,74.87
2018-07-12T02:21:53.954Z,69.70
2018-07-12T02:24:21.310Z,76.07
2018-07-12T02:26:48.681Z,61.73
2018-07-12T02:29:16.024Z,74.37
2018-07-12T02:31:43.392Z,70.53
2018-07-12T02:34:10.756Z,65.37
2018-07-12T02:36:38.131Z,75.40
2018-07-12T02:39:05.681Z,74.97
2018-07-12T02:41:33.067Z,70.83
2018-07-12T02:44:00.428Z,71.83
2018-07-12T02:46:27.807Z,79.07
2018-07-12T02:48:55.160Z,76.83
2018-07-12T02:51:22.512Z,75.43
2018-07-12T02:53:50.064Z,57.53
2018-07-12T02:56:17.428Z,57.73
2018-07-12T02:58:44.808Z,50.50
2018-07-12T03:01:12.164Z,60.77
2018-07-12T03:03:39.543Z,55.00
2018-07-12T03:06:06.915Z,51.60
2018-07-12T03:08:34.316Z,63.93
2018-07-12T03:11:01.704Z,62.23
2018-07-12T03:13:29.080Z,55.10
2018-07-12T03:15:56.427Z,49.40
2018-07-12T03:18:23.796Z,56.43
2018-07-12T03:20:51.147Z,60.97
2018-07-12T03:23:18.573Z,48.37
2018-07-12T03:25:46.078Z,48.17
2018-07-12T03:28:13.461Z,48.07
2018-07-12T03:30:40.864Z,57.03
2018-07-12T03:33:08.223Z,67.40
2018-07-12T03:35:35.638Z,72.03
2018-07-12T03:38:03.024Z,57.40
2018-07-12T03:40:30.462Z,54.33
2018-07-12T03:42:57.978Z,66.63
2018-07-12T03:45:25.330Z,49.20
2018-07-12T03:47:52.707Z,55.67
2018-07-12T03:50:20.059Z,48.67
2018-07-12T03:52:47.467Z,52.53
2018-07-12T03:55:14.902Z,52.77
2018-07-12T03:57:42.285Z,63.83
2018-07-12T04:00:09.652Z,61.20
2018-07-12T04:02:37.072Z,61.70
2018-07-12T04:05:04.459Z,57.13
2018-07-12T04:07:31.924Z,57.87
2018-07-12T04:09:59.294Z,60.23
2018-07-12T04:12:26.901Z,55.57
2018-07-12T04:14:54.270Z,53.97
2018-07-12T04:17:31.944Z,59.77
2018-07-12T04:20:00.456Z,49.17
2018-07-12T04:22:29.106Z,52.07
2018-07-12T04:24:56.639Z,48.80
2018-07-12T04:27:24.426Z,54.07
2018-07-12T04:29:52.975Z,51.00
2018-07-12T04:32:20.395Z,49.73
2018-07-12T04:34:48.637Z,53.00
2018-07-12T04:37:16.300Z,44.17
2018-07-12T04:39:43.745Z,51.33
2018-07-12T04:42:11.116Z,52.27
2018-07-12T04:44:38.478Z,44.97
2018-07-12T04:47:05.939Z,47.63
2018-07-12T04:49:33.310Z,44.47
2018-07-12T04:52:01.225Z,48.33
2018-07-12T04:54:29.163Z,45.37
2018-07-12T04:56:56.524Z,43.33
2018-07-12T04:59:23.906Z,45.47
2018-07-12T05:01:51.251Z,42.67
2018-07-12T05:04:18.608Z,39.37
2018-07-12T05:06:45.982Z,46.07
2018-07-12T05:09:13.320Z,40.93
2018-07-12T05:11:40.704Z,35.87
2018-07-12T05:14:08.577Z,37.90
2018-07-12T05:16:35.992Z,34.83
2018-07-12T05:19:03.353Z,36.57
2018-07-12T05:21:30.731Z,35.30
2018-07-12T05:23:58.079Z,32.97
2018-07-12T05:26:25.463Z,34.23
2018-07-12T05:28:52.821Z,34.13
2018-07-12T05:31:20.228Z,31.63
2018-07-12T05:33:47.580Z,29.57
2018-07-12T05:36:30.215Z,30.07
2018-07-12T05:38:58.665Z,27.03
2018-07-12T05:41:27.139Z,26.77
2018-07-12T05:43:55.677Z,31.63
2018-07-12T05:46:24.868Z,31.13
2018-07-12T05:48:53.359Z,30.43
2018-07-12T05:51:21.864Z,26.00
2018-07-12T05:53:50.517Z,23.60
2018-07-12T05:56:18.971Z,28.37
2018-07-12T05:58:47.431Z,27.00
2018-07-12T06:01:27.167Z,23.10
2018-07-12T06:03:55.790Z,26.60
2018-07-12T06:06:24.922Z,24.73
2018-07-12T06:08:53.516Z,24.80
2018-07-12T06:11:21.955Z,27.27
2018-07-12T06:13:50.458Z,17.23
2018-07-12T06:16:18.907Z,24.70
2018-07-12T06:18:47.406Z,24.93
2018-07-12T06:21:16.016Z,18.33
2018-07-12T06:23:44.194Z,16.63
2018-07-12T06:26:12.676Z,15.50
2018-07-12T06:28:41.143Z,17.17
2018-07-12T06:31:09.655Z,16.07
2018-07-12T06:33:38.099Z,15.87
2018-07-12T06:36:06.627Z,12.60
2018-07-12T06:38:35.108Z,14.23
2018-07-12T06:41:03.620Z,13.27
2018-07-12T06:43:32.089Z,11.03
2018-07-12T06:46:00.640Z,15.40
2018-07-12T06:48:29.150Z,13.83
2018-07-12T06:50:57.636Z,13.27
2018-07-12T06:53:26.139Z,13.73
2018-07-12T06:55:55.127Z,13.17
2018-07-12T06:58:23.993Z,16.27
2018-07-12T07:00:52.458Z,11.53
2018-07-12T07:03:20.938Z,10.93
2018-07-12T07:05:49.424Z,10.40
2018-07-12T07:08:18.050Z,13.70
2018-07-12T07:10:46.569Z,11.17
2018-07-12T07:13:15.135Z,10.83
2018-07-12T07:15:43.591Z,11.70
2018-07-12T07:18:12.610Z,13.03
2018-07-12T07:20:41.700Z,12.10
2018-07-12T07:23:10.686Z,10.63
2018-07-12T07:25:39.803Z,14.18
2018-07-12T07:28:08.993Z,11.83
2018-07-12T07:30:38.002Z,9.20
2018-07-12T07:33:07.028Z,12.15
2018-07-12T07:35:36.082Z,11.53
2018-07-12T07:38:05.391Z,14.45
2018-07-12T07:40:34.658Z,12.30
2018-07-12T07:43:03.536Z,10.43
2018-07-12T07:45:32.097Z,9.50
2018-07-12T07:48:00.245Z,10.57
2018-07-12T07:50:28.704Z,11.37
2018-07-12T07:52:57.110Z,9.00
2018-07-12T07:55:25.555Z,9.73
2018-07-12T07:57:54.008Z,9.67
2018-07-12T08:00:22.479Z,9.13
2018-07-12T08:02:51.890Z,9.73
2018-07-12T08:05:20.363Z,9.63
2018-07-12T08:07:49.662Z,10.13
2018-07-12T08:10:19.652Z,12.63
2018-07-12T08:12:48.950Z,9.43
2018-07-12T08:15:18.362Z,9.00
2018-07-12T08:17:47.399Z,11.30
2018-07-12T08:20:16.522Z,10.65
2018-07-12T08:22:45.519Z,8.95
2018-07-12T08:25:14.877Z,7.30
2018-07-12T08:27:55.207Z,8.55
2018-07-12T08:30:24.241Z,8.18
2018-07-12T08:32:53.247Z,6.95
2018-07-12T08:35:22.243Z,9.03
2018-07-12T08:37:51.255Z,8.23
2018-07-12T08:40:20.641Z,8.23
2018-07-12T08:42:49.719Z,8.10
2018-07-12T08:45:18.931Z,7.15
2018-07-12T08:47:47.928Z,6.70
2018-07-12T08:50:18.294Z,7.80
2018-07-12T08:52:47.367Z,9.45
2018-07-12T08:55:16.360Z,7.25
2018-07-12T08:57:46.064Z,7.33
2018-07-12T09:00:15.155Z,7.85
2018-07-12T09:02:44.352Z,12.47
2018-07-12T09:05:13.508Z,9.63
2018-07-12T09:07:42.596Z,7.30
2018-07-12T09:10:12.555Z,9.90
2018-07-12T09:12:41.907Z,9.55
2018-07-12T09:15:11.140Z,8.80
2018-07-12T09:17:40.140Z,9.38
2018-07-12T09:20:09.160Z,9.33
2018-07-12T09:22:38.179Z,8.80
2018-07-12T09:25:06.639Z,10.70
2018-07-12T09:27:35.091Z,11.33
2018-07-12T09:30:03.637Z,10.77
2018-07-12T09:32:32.094Z,11.77
2018-07-12T09:35:00.593Z,11.33
2018-07-12T09:37:29.036Z,9.03
2018-07-12T09:39:57.753Z,8.23
2018-07-12T09:42:26.183Z,7.10
2018-07-12T09:44:54.630Z,10.77
2018-07-12T09:47:23.448Z,8.93
2018-07-12T09:49:52.112Z,7.43
2018-07-12T09:52:25.942Z,10.27
2018-07-12T09:54:54.431Z,10.33
2018-07-12T09:57:33.989Z,9.70
2018-07-12T10:00:02.692Z,10.23
2018-07-12T10:02:36.490Z,9.57
2018-07-12T10:05:09.435Z,11.50
2018-07-12T10:07:47.107Z,12.40
2018-07-12T10:10:15.598Z,12.60
2018-07-12T10:12:49.431Z,13.40
2018-07-12T10:15:23.239Z,13.30
2018-07-12T10:17:55.926Z,11.70
2018-07-12T10:20:24.407Z,13.37
2018-07-12T10:22:53.115Z,13.47
2018-07-12T10:25:21.595Z,14.77
2018-07-12T10:27:50.201Z,12.43
2018-07-12T10:30:19.461Z,11.70
2018-07-12T10:32:47.628Z,10.40
2018-07-12T10:35:16.096Z,11.77
2018-07-12T10:37:44.539Z,13.00
2018-07-12T10:40:13.003Z,11.73
2018-07-12T10:42:41.469Z,13.17
2018-07-12T10:45:09.934Z,10.13
2018-07-12T10:47:38.415Z,12.43
2018-07-12T10:50:06.940Z,14.23
2018-07-12T10:52:35.421Z,10.27
2018-07-12T10:55:04.339Z,10.23
2018-07-12T10:57:32.794Z,11.23
2018-07-12T11:00:01.246Z,12.03
2018-07-12T11:02:29.715Z,15.20
2018-07-12T11:04:58.183Z,10.90
2018-07-12T11:07:26.655Z,11.57
2018-07-12T11:09:55.147Z,15.13
2018-07-12T11:12:23.594Z,14.07
2018-07-12T11:14:52.126Z,12.97
2018-07-12T11:17:20.638Z,12.67
2018-07-12T11:19:48.826Z,10.50
2018-07-12T11:22:17.630Z,13.77
2018-07-12T11:24:46.120Z,13.10
2018-07-12T11:27:14.614Z,12.93
2018-07-12T11:29:53.606Z,12.00
2018-07-12T11:32:22.627Z,15.78
2018-07-12T11:34:51.554Z,14.97
2018-07-12T11:37:23.785Z,16.33
2018-07-12T11:39:52.554Z,13.97
2018-07-12T11:42:21.067Z,15.17
2018-07-12T11:44:50.124Z,12.77
2018-07-12T11:47:19.135Z,11.47
2018-07-12T11:49:47.654Z,14.93
2018-07-12T11:52:16.400Z,13.50
2018-07-12T11:54:44.942Z,10.77
2018-07-12T11:57:13.463Z,11.93
2018-07-12T11:59:42.271Z,11.20
2018-07-12T12:02:10.868Z,12.87
2018-07-12T12:04:39.494Z,14.43
2018-07-12T12:07:07.986Z,9.03
2018-07-12T12:09:36.490Z,11.93
2018-07-12T12:12:05.024Z,15.00
2018-07-12T12:14:33.786Z,11.13
2018-07-12T12:17:02.666Z,11.30
2018-07-12T12:19:31.361Z,8.87
2018-07-12T12:22:00.544Z,13.17
2018-07-12T12:24:29.153Z,14.03
2018-07-12T12:26:57.659Z,11.07
2018-07-12T12:29:26.174Z,10.93
2018-07-12T12:31:54.868Z,11.60
2018-07-12T12:34:23.414Z,8.57
2018-07-12T12:36:51.879Z,8.83
2018-07-12T12:39:20.374Z,10.93
2018-07-12T12:41:48.869Z,9.67
2018-07-12T12:44:17.527Z,12.93
2018-07-12T12:46:46.015Z,10.90
2018-07-12T12:49:14.505Z,7.97
2018-07-12T12:51:42.983Z,9.23
2018-07-12T12:54:11.475Z,9.77
2018-07-12T12:56:39.982Z,6.67
2018-07-12T12:59:08.474Z,7.80
2018-07-12T13:01:36.988Z,8.60
2018-07-12T13:04:05.660Z,8.03
2018-07-12T13:06:34.171Z,7.10
2018-07-12T13:09:02.719Z,5.97
2018-07-12T13:11:31.228Z,6.93
2018-07-12T13:13:59.699Z,7.43
2018-07-12T13:16:28.192Z,5.97
2018-07-12T13:18:56.691Z,7.27
2018-07-12T13:21:25.208Z,4.97
2018-07-12T13:23:53.699Z,8.23
2018-07-12T13:26:22.273Z,7.43
2018-07-12T13:28:52.138Z,13.00
2018-07-12T13:31:20.671Z,7.03
2018-07-12T13:33:49.200Z,4.60
2018-07-12T13:36:17.691Z,9.27
2018-07-12T13:38:46.191Z,6.97
2018-07-12T13:41:15.144Z,5.73
2018-07-12T13:43:43.628Z,6.63
2018-07-12T13:46:12.472Z,7.87
2018-07-12T13:48:40.954Z,6.17
2018-07-12T13:51:09.479Z,6.83
2018-07-12T13:53:38.339Z,6.63
2018-07-12T13:56:06.886Z,6.73
2018-07-12T13:58:35.536Z,6.30
2018-07-12T14:01:04.452Z,4.53
2018-07-12T14:03:32.944Z,3.97
2018-07-12T14:06:01.459Z,4.60
2018-07-12T14:08:29.935Z,6.43
2018-07-12T14:10:58.429Z,4.90
2018-07-12T14:13:26.963Z,5.57
2018-07-12T14:15:55.451Z,7.87
2018-07-12T14:18:24.363Z,5.73
2018-07-12T14:20:52.863Z,5.07
2018-07-12T14:23:21.380Z,5.13
2018-07-12T14:25:49.866Z,3.93
2018-07-12T14:28:18.359Z,8.03
2018-07-12T14:30:46.886Z,10.40
2018-07-12T14:33:16.057Z,6.27
2018-07-12T14:35:44.817Z,4.60
2018-07-12T14:38:13.227Z,4.83
2018-07-12T14:40:42.045Z,6.33
2018-07-12T14:43:10.868Z,8.67
2018-07-12T14:45:39.559Z,5.93
2018-07-12T14:48:08.173Z,5.77
2018-07-12T14:50:36.743Z,6.17
2018-07-12T14:53:05.558Z,6.50
2018-07-12T14:55:34.035Z,5.90
2018-07-12T14:58:02.963Z,5.70
2018-07-12T15:00:31.547Z,6.43
2018-07-12T15:03:00.063Z,4.77
2018-07-12T15:05:29.545Z,5.57
2018-07-12T15:07:58.207Z,8.57
2018-07-12T15:10:26.892Z,6.23
2018-07-12T15:12:56.201Z,4.90
2018-07-12T15:15:24.752Z,5.53
2018-07-12T15:17:53.477Z,7.13
2018-07-12T15:20:21.983Z,8.03
2018-07-12T15:22:50.892Z,7.17
2018-07-12T15:25:19.409Z,6.13
2018-07-12T15:27:47.908Z,4.97
2018-07-12T15:30:16.254Z,3.83
2018-07-12T15:32:44.785Z,4.10
2018-07-12T15:35:13.286Z,8.33
2018-07-12T15:37:41.756Z,4.40
2018-07-12T15:40:10.266Z,4.13
2018-07-12T15:42:38.740Z,5.77
2018-07-12T15:45:07.248Z,4.80
2018-07-12T15:47:35.923Z,3.30
2018-07-12T15:50:04.475Z,6.17
2018-07-12T15:52:32.975Z,5.47
2018-07-12T15:55:01.785Z,7.43
2018-07-12T15:57:30.279Z,12.83
2018-07-12T15:59:58.790Z,11.40
2018-07-12T16:02:27.282Z,17.37
2018-07-12T16:04:55.791Z,12.17
2018-07-12T16:07:24.296Z,9.90
2018-07-12T16:09:52.780Z,8.27
2018-07-12T16:12:21.262Z,9.13
2018-07-12T16:14:49.760Z,12.80
2018-07-12T16:17:18.279Z,9.37
2018-07-12T16:19:46.766Z,8.67
2018-07-12T16:22:15.296Z,10.90
2018-07-12T16:24:43.803Z,15.23
2018-07-12T16:27:12.273Z,9.90
2018-07-12T16:29:40.786Z,12.90
2018-07-12T16:32:09.295Z,11.77
2018-07-12T16:34:37.795Z,9.07
2018-07-12T16:37:06.652Z,10.73
2018-07-12T16:39:35.351Z,10.93
2018-07-12T16:42:03.918Z,13.03
2018-07-12T16:44:32.424Z,11.20
2018-07-12T16:47:00.911Z,9.43
2018-07-12T16:49:29.431Z,11.23
2018-07-12T16:51:57.919Z,9.00
2018-07-12T16:54:26.576Z,10.37
2018-07-12T16:56:55.270Z,9.70
2018-07-12T16:59:23.764Z,9.73
2018-07-12T17:01:52.250Z,10.17
2018-07-12T17:04:21.127Z,14.53
2018-07-12T17:06:49.626Z,11.20
2018-07-12T17:09:18.113Z,11.43
2018-07-12T17:11:46.626Z,12.93
2018-07-12T17:14:15.093Z,12.07
2018-07-12T17:16:43.615Z,12.93
2018-07-12T17:19:12.119Z,17.97
2018-07-12T17:21:40.635Z,14.70
2018-07-12T17:24:09.140Z,14.43
2018-07-12T17:26:37.687Z,12.80
2018-07-12T17:29:06.230Z,16.13
2018-07-12T17:31:34.795Z,14.47
2018-07-12T17:34:03.327Z,13.13
2018-07-12T17:36:31.902Z,12.73
2018-07-12T17:39:00.395Z,11.50
2018-07-12T17:41:28.941Z,10.70
2018-07-12T17:43:57.970Z,10.37
2018-07-12T17:46:26.510Z,12.93
2018-07-12T17:48:55.031Z,13.07
2018-07-12T17:51:23.566Z,13.67
2018-07-12T17:53:52.152Z,13.37
2018-07-12T17:56:21.636Z,11.93
2018-07-12T17:58:51.707Z,11.93
2018-07-12T18:01:20.384Z,11.63
2018-07-12T18:03:49.281Z,9.73
2018-07-12T18:06:17.823Z,13.13
2018-07-12T18:08:47.112Z,12.07
2018-07-12T18:11:16.099Z,11.87
2018-07-12T18:13:45.160Z,14.73
2018-07-12T18:16:13.767Z,12.10
2018-07-12T18:18:42.952Z,11.77
2018-07-12T18:21:11.511Z,11.80
2018-07-12T18:23:40.302Z,11.97
2018-07-12T18:26:09.077Z,12.97
2018-07-12T18:28:37.660Z,12.43
2018-07-12T18:31:06.802Z,12.07
2018-07-12T18:33:35.323Z,16.13
2018-07-12T18:36:03.872Z,13.50
2018-07-12T18:38:34.972Z,12.17
2018-07-12T18:41:08.701Z,15.17
2018-07-12T18:43:37.599Z,22.50
2018-07-12T18:46:06.672Z,14.03
2018-07-12T18:48:36.842Z,15.53
2018-07-12T18:51:06.539Z,16.33
2018-07-12T18:53:35.026Z,14.07
2018-07-12T18:56:03.555Z,13.93
2018-07-12T18:58:32.055Z,14.53
2018-07-12T19:01:00.597Z,13.83
2018-07-12T19:03:29.091Z,13.90
2018-07-12T19:05:57.578Z,16.13
2018-07-12T19:08:26.078Z,17.97
2018-07-12T19:10:54.595Z,15.67
2018-07-12T19:13:23.162Z,16.87
2018-07-12T19:15:51.651Z,15.70
2018-07-12T19:18:21.368Z,14.83
2018-07-12T19:20:50.595Z,17.03
2018-07-12T19:23:19.235Z,19.57
2018-07-12T19:25:47.785Z,16.80
2018-07-12T19:28:16.295Z,17.83
2018-07-12T19:30:44.783Z,18.67
2018-07-12T19:33:13.307Z,20.20
2018-07-12T19:35:41.802Z,20.10
2018-07-12T19:38:10.303Z,24.00
2018-07-12T19:40:38.863Z,20.80
2018-07-12T19:43:07.374Z,22.57
2018-07-12T19:45:35.901Z,22.17
2018-07-12T19:48:06.073Z,20.23
2018-07-12T19:50:34.676Z,32.13
2018-07-12T19:53:03.317Z,17.77
2018-07-12T19:55:32.166Z,18.00
2018-07-12T19:58:01.732Z,14.80
2018-07-12T20:00:30.380Z,16.77
2018-07-12T20:02:59.248Z,18.17
2018-07-12T20:05:27.746Z,16.40
2018-07-12T20:07:56.267Z,19.23
2018-07-12T20:10:24.751Z,22.40
2018-07-12T20:12:53.295Z,16.27
2018-07-12T20:15:21.809Z,14.87
2018-07-12T20:17:50.631Z,16.33
2018-07-12T20:20:19.533Z,16.00
2018-07-12T20:22:48.060Z,15.23
2018-07-12T20:25:16.660Z,16.47
2018-07-12T20:27:45.295Z,17.77
2018-07-12T20:30:14.106Z,17.33
2018-07-12T20:32:42.611Z,17.00
2018-07-12T20:38:09.910Z,20.33
2018-07-12T20:40:38.401Z,17.90
2018-07-12T20:43:06.963Z,18.70
2018-07-12T20:45:36.097Z,18.70
2018-07-12T20:48:04.704Z,16.57
2018-07-12T20:50:33.347Z,17.27
2018-07-12T20:53:02.161Z,19.60
2018-07-12T20:55:30.655Z,17.97
2018-07-12T20:57:59.167Z,17.23
2018-07-12T21:00:27.652Z,20.13
2018-07-12T21:02:56.208Z,18.20
2018-07-12T21:08:23.628Z,17.37
2018-07-12T21:10:52.135Z,18.07
2018-07-12T21:13:20.618Z,17.63
2018-07-12T21:15:50.118Z,18.53
2018-07-12T21:18:18.648Z,19.77
2018-07-12T21:20:47.127Z,19.13
2018-07-12T21:23:15.680Z,18.87
2018-07-12T21:25:44.190Z,16.97
2018-07-12T21:28:12.707Z,19.90
2018-07-12T21:30:41.195Z,17.97
2018-07-12T21:33:09.701Z,17.80
2018-07-12T21:35:38.170Z,15.70
2018-07-12T21:38:06.661Z,17.47
2018-07-12T21:40:35.127Z,18.13
2018-07-12T21:43:03.684Z,17.83
2018-07-12T21:45:32.151Z,17.93
2018-07-12T21:48:00.664Z,18.80
2018-07-12T21:50:29.188Z,20.47
2018-07-12T21:52:57.679Z,22.30
2018-07-12T21:55:26.151Z,19.43
2018-07-12T21:57:54.673Z,18.17
2018-07-12T22:00:23.175Z,17.60
2018-07-12T22:02:51.707Z,21.97
2018-07-12T22:05:20.386Z,19.10
2018-07-12T22:08:10.371Z,18.47
2018-07-12T22:10:38.863Z,17.63
2018-07-12T22:13:07.543Z,19.73
2018-07-12T22:15:36.871Z,19.50
2018-07-12T22:18:05.394Z,19.97
2018-07-12T22:20:33.952Z,19.93
2018-07-12T22:23:02.634Z,19.10
2018-07-12T22:25:31.159Z,21.47
2018-07-12T22:27:59.646Z,19.43
2018-07-12T22:30:28.788Z,20.80
2018-07-12T22:32:57.815Z,18.87
2018-07-12T22:35:26.347Z,22.03
2018-07-12T22:37:54.842Z,21.23
2018-07-12T22:40:23.312Z,20.57
2018-07-12T22:42:51.832Z,19.87
2018-07-12T22:45:20.318Z,18.57
2018-07-12T22:47:48.873Z,19.83
2018-07-12T22:50:17.547Z,17.90
2018-07-12T22:52:46.035Z,24.10
2018-07-12T22:55:14.524Z,17.73
2018-07-12T22:57:43.031Z,19.47
2018-07-12T23:00:11.549Z,19.30
2018-07-12T23:02:40.175Z,19.13
2018-07-12T23:05:08.744Z,22.97
2018-07-12T23:07:37.654Z,20.70
2018-07-12T23:10:06.495Z,18.33
2018-07-12T23:12:34.991Z,23.67
2018-07-12T23:15:03.490Z,28.27
2018-07-12T23:17:31.996Z,19.07
2018-07-12T23:20:00.499Z,15.83
2018-07-12T23:22:29.028Z,23.43
2018-07-12T23:24:57.873Z,19.30
2018-07-12T23:27:26.350Z,21.50
2018-07-12T23:29:54.894Z,22.93
2018-07-12T23:32:23.420Z,21.40
2018-07-12T23:34:51.904Z,23.17
2018-07-12T23:37:20.395Z,20.00
2018-07-12T23:39:48.934Z,18.30
2018-07-12T23:42:17.443Z,23.53
2018-07-12T23:44:45.951Z,21.87
2018-07-12T23:47:14.428Z,19.67
2018-07-12T23:49:43.290Z,28.63
2018-07-12T23:52:11.804Z,17.20
2018-07-12T23:54:40.303Z,19.40
2018-07-12T23:57:08.853Z,24.13
2018-07-12T23:59:37.929Z,20.50
